Time;durP1;ratioP1;P1;durP2;ratioP2;P2;SDS_P1;SDS_P2;PMS_P1;PMS_P2;Temp;Humidity;BMP_temperature;BMP_pressure;BME280_temperature;BME280_humidity;BME280_pressure;Samples;Min_cycle;Max_cycle;Signal;HPM_P1;HPM_P2
2021/09/25 00:01:18;;;;;;;;;4.25;4.25;;;;;26.33;41.00;101560.75;5076507;27;45990;-68
2021/09/25 00:03:43;;;;;;;;;6.25;5.00;;;;;26.27;41.30;101541.84;5075399;27;45592;-68
2021/09/25 00:06:08;;;;;;;;;5.00;4.25;;;;;26.32;41.02;101549.25;5073019;28;45346;-68
2021/09/25 00:08:34;;;;;;;;;6.00;5.00;;;;;26.31;41.00;101544.94;5072184;28;45423;-69
2021/09/25 00:10:59;;;;;;;;;5.50;4.00;;;;;26.33;41.07;101547.44;5059119;27;47099;-68
2021/09/25 00:13:25;;;;;;;;;4.25;3.50;;;;;26.32;41.19;101551.09;5060938;28;45393;-68
2021/09/25 00:15:50;;;;;;;;;3.75;3.50;;;;;26.32;41.31;101553.75;5060573;28;45555;-69
2021/09/25 00:18:16;;;;;;;;;5.50;4.50;;;;;26.21;40.61;101533.78;5060829;28;45327;-68
2021/09/25 00:20:42;;;;;;;;;3.50;2.00;;;;;26.29;41.24;101542.47;5061054;28;45374;-68
2021/09/25 00:23:07;;;;;;;;;5.25;3.00;;;;;26.30;40.96;101537.97;5058247;28;45407;-69
2021/09/25 00:25:33;;;;;;;;;5.00;4.00;;;;;26.29;41.20;101537.13;5060743;27;45351;-69
2021/09/25 00:27:59;;;;;;;;;3.75;3.75;;;;;26.28;41.39;101530.13;5070897;28;45450;-69
2021/09/25 00:30:25;;;;;;;;;4.00;4.00;;;;;26.31;41.11;101533.47;5069750;28;45468;-69
2021/09/25 00:32:51;;;;;;;;;3.50;3.50;;;;;26.30;41.06;101532.63;5072218;28;45293;-69
2021/09/25 00:35:17;;;;;;;;;5.50;4.00;;;;;26.29;40.98;101531.81;5058778;28;45376;-68
2021/09/25 00:37:42;;;;;;;;;5.00;5.00;;;;;26.25;41.48;101530.56;5063239;27;45468;-69
2021/09/25 00:40:10;;;;;;;;;3.25;3.25;;;;;26.27;41.02;101547.19;5063762;28;46930;-69
2021/09/25 00:42:35;;;;;;;;;5.00;5.00;;;;;26.29;41.23;101552.31;5063843;28;45505;-69
2021/09/25 00:45:02;;;;;;;;;4.50;4.50;;;;;26.28;41.25;101543.47;5061972;28;45383;-68
2021/09/25 00:47:27;;;;;;;;;4.00;3.75;;;;;26.24;41.26;101542.22;5060688;28;45391;-68
2021/09/25 00:49:53;;;;;;;;;4.00;4.00;;;;;26.27;41.33;101541.00;5062189;28;46137;-69
2021/09/25 00:52:18;;;;;;;;;6.50;5.50;;;;;26.27;41.12;101546.34;5063479;28;45317;-68
2021/09/25 00:54:43;;;;;;;;;3.50;3.50;;;;;26.27;40.80;101549.84;5063823;28;45322;-69
2021/09/25 00:57:09;;;;;;;;;5.00;5.00;;;;;26.27;41.03;101541.00;5063340;28;45522;-69
2021/09/25 00:59:35;;;;;;;;;4.50;4.50;;;;;26.27;40.76;101541.84;5058931;28;46818;-69
2021/09/25 01:02:00;;;;;;;;;4.50;3.50;;;;;26.26;41.04;101534.84;5061211;28;45232;-69
2021/09/25 01:04:26;;;;;;;;;4.00;3.00;;;;;26.27;41.25;101535.69;5063546;28;45521;-69
2021/09/25 01:06:51;;;;;;;;;5.00;4.00;;;;;26.27;41.15;101543.69;5063502;28;45546;-69
2021/09/25 01:09:17;;;;;;;;;4.50;4.00;;;;;26.27;41.07;101541.84;5064044;28;45671;-69
2021/09/25 01:11:42;;;;;;;;;4.75;4.75;;;;;26.17;41.15;101525.34;5074575;28;45258;-70
2021/09/25 01:14:08;;;;;;;;;5.00;5.00;;;;;26.26;40.91;101548.19;5077647;27;45485;-69
2021/09/25 01:16:33;;;;;;;;;3.50;3.50;;;;;26.26;40.68;101550.84;5074341;27;45318;-69
2021/09/25 01:19:00;;;;;;;;;4.75;4.75;;;;;26.21;40.82;101541.78;5075539;27;46321;-69
2021/09/25 01:21:26;;;;;;;;;4.00;4.00;;;;;26.26;41.06;101552.69;5075766;28;45556;-68
2021/09/25 01:23:52;;;;;;;;;4.75;4.75;;;;;26.25;41.25;101549.22;5075952;27;45327;-69
2021/09/25 01:26:20;;;;;;;;;5.00;4.00;;;;;26.25;40.81;101541.22;5076693;27;45279;-69
2021/09/25 01:28:46;;;;;;;;;5.00;5.00;;;;;26.26;41.08;101544.69;5076732;28;45490;-69
2021/09/25 01:31:14;;;;;;;;;6.00;5.75;;;;;26.26;40.97;101534.00;5075475;28;45490;-68
2021/09/25 01:33:42;;;;;;;;;5.50;5.00;;;;;26.25;41.11;101535.06;5075442;28;45450;-68
2021/09/25 01:36:10;;;;;;;;;4.25;4.25;;;;;26.27;41.04;101533.00;5075627;27;45429;-68
2021/09/25 01:38:37;;;;;;;;;3.00;3.00;;;;;26.27;41.03;101535.69;5075471;27;46411;-68
2021/09/25 01:41:02;;;;;;;;;4.00;4.00;;;;;26.28;40.97;101537.34;5077145;28;45426;-68
2021/09/25 01:43:29;;;;;;;;;4.00;4.00;;;;;26.27;40.87;101544.50;5075043;27;45347;-68
2021/09/25 01:45:55;;;;;;;;;5.50;4.25;;;;;26.27;40.92;101536.50;5075336;27;45418;-69
2021/09/25 01:48:21;;;;;;;;;5.00;5.00;;;;;26.27;40.80;101536.50;5075181;27;45496;-68
2021/09/25 01:50:46;;;;;;;;;4.00;4.00;;;;;26.27;40.81;101536.50;5075298;27;45392;-69
2021/09/25 01:53:13;;;;;;;;;5.50;3.75;;;;;26.21;40.68;101541.78;5076912;27;45452;-68
2021/09/25 01:55:39;;;;;;;;;5.00;4.50;;;;;26.27;40.53;101549.00;5074356;28;45380;-69
2021/09/25 01:58:05;;;;;;;;;4.75;4.75;;;;;26.28;41.10;101545.34;5074649;28;46395;-69
2021/09/25 02:00:34;;;;;;;;;4.50;4.50;;;;;26.27;40.79;101536.50;5074909;27;45470;-69
2021/09/25 02:03:00;;;;;;;;;3.50;3.50;;;;;26.27;40.68;101539.19;5075192;27;45477;-69
2021/09/25 02:05:25;;;;;;;;;4.00;2.75;;;;;26.27;40.57;101535.69;5075119;27;45369;-69
2021/09/25 02:07:50;;;;;;;;;4.75;4.75;;;;;26.29;40.55;101538.97;5076647;27;46282;-69
2021/09/25 02:10:16;;;;;;;;;5.25;5.00;;;;;26.28;40.78;101532.81;5074799;27;45465;-69
2021/09/25 02:12:42;;;;;;;;;3.25;3.25;;;;;26.27;40.82;101522.34;5074546;27;45452;-69
2021/09/25 02:15:09;;;;;;;;;3.75;3.25;;;;;26.28;40.68;101522.13;5075098;27;45501;-69
2021/09/25 02:17:34;;;;;;;;;3.50;3.50;;;;;26.23;40.90;101510.44;5074790;27;46966;-69
2021/09/25 02:20:00;;;;;;;;;4.00;4.00;;;;;26.28;40.74;101516.00;5076509;28;45311;-69
2021/09/25 02:22:26;;;;;;;;;4.50;4.50;;;;;26.28;40.59;101518.66;5074717;27;45427;-69
2021/09/25 02:24:51;;;;;;;;;4.75;4.75;;;;;26.28;40.86;101522.13;5064412;27;45349;-69
2021/09/25 02:27:16;;;;;;;;;6.00;6.00;;;;;26.28;40.72;101511.47;5058342;28;46274;-69
2021/09/25 02:29:42;;;;;;;;;4.00;4.00;;;;;26.29;40.43;101522.97;5058805;28;45629;-69
2021/09/25 02:32:08;;;;;;;;;7.00;4.00;;;;;26.30;40.52;101521.97;5067576;28;45253;-69
2021/09/25 02:34:34;;;;;;;;;5.00;5.00;;;;;26.29;40.66;101514.97;5068674;28;45581;-69
2021/09/25 02:37:00;;;;;;;;;6.00;4.00;;;;;26.22;40.57;101500.75;5063224;28;46039;-69
2021/09/25 02:39:27;;;;;;;;;5.00;5.00;;;;;26.25;40.66;101508.38;5063452;28;45412;-69
2021/09/25 02:41:52;;;;;;;;;4.00;4.00;;;;;26.27;40.67;101507.16;5072651;28;45512;-68
2021/09/25 02:44:18;;;;;;;;;4.00;4.00;;;;;26.25;40.94;101500.38;5056447;28;45289;-68
2021/09/25 02:46:43;;;;;;;;;6.00;4.00;;;;;26.20;40.65;101495.63;5057960;28;46319;-68
2021/09/25 02:49:09;;;;;;;;;4.00;3.50;;;;;26.27;40.67;101504.50;5058510;28;45524;-69
2021/09/25 02:51:34;;;;;;;;;4.25;4.25;;;;;26.19;40.47;101493.97;5058573;28;45318;-69
2021/09/25 02:54:00;;;;;;;;;5.00;3.25;;;;;26.25;40.58;101506.53;5058626;28;45471;-69
2021/09/25 02:56:25;;;;;;;;;4.00;4.00;;;;;26.24;40.75;101506.72;5055922;28;46208;-69
2021/09/25 02:58:50;;;;;;;;;4.00;4.00;;;;;26.27;40.59;101506.34;5057797;27;45395;-69
2021/09/25 03:01:16;;;;;;;;;4.75;3.25;;;;;26.17;40.23;101496.84;5058577;28;45391;-69
2021/09/25 03:03:41;;;;;;;;;5.00;3.25;;;;;26.25;40.88;101500.38;5058355;28;45460;-69
2021/09/25 03:06:07;;;;;;;;;4.50;4.50;;;;;26.26;40.72;101499.34;5058175;28;45481;-69
2021/09/25 03:08:32;;;;;;;;;4.00;4.00;;;;;26.25;40.68;101503.03;5057233;28;45292;-69
2021/09/25 03:10:57;;;;;;;;;5.25;5.00;;;;;26.24;40.58;101504.88;5075836;27;45273;-68
2021/09/25 03:13:22;;;;;;;;;3.00;3.00;;;;;26.16;40.51;101479.19;5072607;27;45437;-69
2021/09/25 03:15:48;;;;;;;;;4.00;4.00;;;;;26.21;40.77;101488.44;5073834;27;47032;-69
2021/09/25 03:18:13;;;;;;;;;5.75;4.50;;;;;26.24;40.47;101485.38;5074010;27;45312;-68
2021/09/25 03:20:38;;;;;;;;;5.25;5.00;;;;;26.23;40.48;101481.88;5074535;27;45460;-69
2021/09/25 03:23:04;;;;;;;;;5.00;5.00;;;;;26.24;40.55;101485.38;5075964;27;45271;-69
2021/09/25 03:25:29;;;;;;;;;3.00;3.00;;;;;26.23;40.76;101476.56;5072612;27;46167;-68
2021/09/25 03:27:55;;;;;;;;;4.00;4.00;;;;;26.23;40.47;101475.75;5073791;27;45404;-69
2021/09/25 03:30:22;;;;;;;;;4.00;4.00;;;;;26.24;40.35;101477.38;5073942;27;45504;-69
2021/09/25 03:32:47;;;;;;;;;4.00;4.00;;;;;26.24;40.72;101478.22;5074029;28;45339;-69
2021/09/25 03:35:13;;;;;;;;;3.50;3.50;;;;;26.23;40.37;101467.75;5074770;27;47084;-68
2021/09/25 03:37:39;;;;;;;;;4.00;4.00;;;;;26.20;40.08;101463.63;5074390;28;45509;-69
2021/09/25 03:40:06;;;;;;;;;4.00;4.00;;;;;26.24;40.41;101466.72;5073433;27;45303;-69
2021/09/25 03:42:31;;;;;;;;;5.50;3.00;;;;;26.24;40.53;101477.38;5073713;27;45631;-69
2021/09/25 03:44:57;;;;;;;;;3.00;3.00;;;;;26.16;40.36;101460.50;5073595;27;46331;-69
2021/09/25 03:47:23;;;;;;;;;4.00;4.00;;;;;26.24;40.29;101475.53;5075066;27;45521;-69
2021/09/25 03:49:48;;;;;;;;;5.50;4.75;;;;;26.23;40.40;101484.56;5073152;27;45754;-69
2021/09/25 03:52:14;;;;;;;;;5.75;4.25;;;;;26.24;40.41;101472.88;5073667;27;45572;-69
2021/09/25 03:54:39;;;;;;;;;4.25;4.25;;;;;26.23;40.55;101471.22;5073136;27;46045;-69
2021/09/25 03:57:04;;;;;;;;;3.00;3.00;;;;;26.23;40.74;101463.22;5070717;28;45584;-69
2021/09/25 03:59:30;;;;;;;;;5.00;5.00;;;;;26.23;40.44;101468.53;5073731;27;45372;-68
2021/09/25 04:01:55;;;;;;;;;3.25;3.25;;;;;26.21;40.47;101475.09;5075351;28;45502;-69
2021/09/25 04:04:21;;;;;;;;;4.50;4.50;;;;;26.22;40.38;101477.59;5073259;27;46127;-69
2021/09/25 04:06:46;;;;;;;;;3.00;3.00;;;;;26.22;40.45;101471.41;5073277;27;45475;-69
2021/09/25 04:09:11;;;;;;;;;5.50;4.00;;;;;26.23;40.11;101467.75;5073309;27;45509;-68
2021/09/25 04:11:37;;;;;;;;;2.00;2.00;;;;;26.16;40.09;101462.34;5073614;27;45358;-68
2021/09/25 04:14:02;;;;;;;;;3.00;3.00;;;;;26.23;40.44;101475.75;5075114;28;46223;-69
2021/09/25 04:16:28;;;;;;;;;7.00;3.00;;;;;26.21;40.36;101472.44;5073071;27;45358;-69
2021/09/25 04:18:53;;;;;;;;;3.00;3.00;;;;;26.20;40.41;101474.28;5073383;27;45493;-68
2021/09/25 04:21:19;;;;;;;;;3.00;3.00;;;;;26.21;40.38;101480.44;5073334;27;45478;-69
2021/09/25 04:23:44;;;;;;;;;5.50;3.50;;;;;26.20;40.75;101478.78;5072899;27;45494;-69
2021/09/25 04:26:10;;;;;;;;;5.50;4.50;;;;;26.19;40.27;101472.63;5074841;27;45209;-69
2021/09/25 04:28:35;;;;;;;;;4.00;4.00;;;;;26.19;40.47;101472.63;5073532;27;45640;-69
2021/09/25 04:31:00;;;;;;;;;4.00;4.00;;;;;26.08;40.14;101465.97;5071590;27;45312;-69
2021/09/25 04:33:26;;;;;;;;;5.00;5.00;;;;;26.15;40.43;101488.19;5073014;27;45383;-68
2021/09/25 04:35:51;;;;;;;;;4.25;2.75;;;;;26.18;40.29;101490.47;5073133;27;45552;-68
2021/09/25 04:38:17;;;;;;;;;3.25;3.25;;;;;26.07;40.38;101457.16;5077462;28;45346;-69
2021/09/25 04:40:42;;;;;;;;;4.00;4.00;;;;;26.17;40.12;101482.69;5075151;28;45430;-69
2021/09/25 04:43:08;;;;;;;;;3.00;3.00;;;;;26.18;40.36;101477.13;5072241;27;45374;-68
2021/09/25 04:45:33;;;;;;;;;6.00;4.25;;;;;26.19;40.42;101483.31;5062916;28;45374;-69
2021/09/25 04:47:58;;;;;;;;;5.50;4.00;;;;;26.17;40.26;101472.84;5062186;28;45337;-69
2021/09/25 04:50:29;;;;;;;;;3.00;3.00;;;;;26.18;40.04;101471.81;5061208;28;45418;-69
2021/09/25 04:53:04;;;;;;;;;3.00;3.00;;;;;26.18;40.09;101469.13;5061995;28;47200;-69
2021/09/25 04:55:29;;;;;;;;;5.75;4.50;;;;;26.17;40.45;101466.69;5063482;28;45361;-69
2021/09/25 04:57:54;;;;;;;;;3.75;3.00;;;;;26.18;40.25;101466.47;5063533;28;45451;-69
2021/09/25 05:00:20;;;;;;;;;5.00;5.00;;;;;26.19;40.10;101469.97;5063485;28;45563;-69
2021/09/25 05:02:47;;;;;;;;;2.75;2.50;;;;;26.15;40.16;101450.03;5059730;28;46142;-69
2021/09/25 05:05:12;;;;;;;;;4.75;3.25;;;;;26.19;40.42;101456.63;5061001;28;45291;-69
2021/09/25 05:07:37;;;;;;;;;3.75;3.25;;;;;26.19;40.14;101451.28;5063802;28;45465;-69
2021/09/25 05:10:03;;;;;;;;;4.25;4.25;;;;;26.15;39.88;101447.38;5063573;28;45445;-69
2021/09/25 05:12:28;;;;;;;;;5.75;4.75;;;;;26.19;40.05;101448.63;5063339;28;46290;-69
2021/09/25 05:14:54;;;;;;;;;4.50;2.75;;;;;26.15;40.21;101450.03;5060867;28;45549;-69
2021/09/25 05:17:19;;;;;;;;;4.00;3.25;;;;;26.18;40.12;101458.47;5075616;28;45409;-68
2021/09/25 05:19:46;;;;;;;;;4.00;4.00;;;;;26.18;40.15;101455.81;5059343;28;45444;-69
2021/09/25 05:22:12;;;;;;;;;6.00;4.25;;;;;26.17;40.28;101462.16;5072331;28;47233;-69
2021/09/25 05:24:38;;;;;;;;;3.50;3.50;;;;;26.17;40.05;101464.84;5075420;27;45434;-68
2021/09/25 05:27:04;;;;;;;;;4.00;4.00;;;;;26.17;40.18;101464.84;5074614;27;45476;-69
2021/09/25 05:29:30;;;;;;;;;3.00;3.00;;;;;26.09;39.90;101451.63;5075611;27;45632;-69
2021/09/25 05:32:01;;;;;;;;;5.00;4.00;;;;;26.17;40.13;101470.16;5058652;28;45255;-68
2021/09/25 05:34:27;;;;;;;;;2.00;2.00;;;;;26.17;40.21;101462.16;5072763;28;45540;-68
2021/09/25 05:36:54;;;;;;;;;3.75;3.75;;;;;26.17;40.19;101453.34;5065567;28;45401;-69
2021/09/25 05:39:19;;;;;;;;;3.75;2.25;;;;;26.16;39.52;101447.19;5059624;28;45524;-69
2021/09/25 05:41:45;;;;;;;;;4.75;4.00;;;;;26.15;40.09;101450.84;5059516;28;45964;-68
2021/09/25 05:44:10;;;;;;;;;3.75;3.75;;;;;26.12;40.31;101442.44;5057065;28;45343;-68
2021/09/25 05:46:36;;;;;;;;;3.00;3.00;;;;;26.15;40.27;101447.38;5059439;28;45375;-68
2021/09/25 05:49:01;;;;;;;;;5.00;5.00;;;;;26.15;40.00;101450.03;5061925;28;45498;-68
2021/09/25 05:51:27;;;;;;;;;5.00;3.50;;;;;26.06;40.27;101442.19;5062823;28;47098;-68
2021/09/25 05:53:52;;;;;;;;;3.75;3.75;;;;;26.14;40.25;101454.56;5060138;28;45279;-68
2021/09/25 05:56:17;;;;;;;;;4.00;4.00;;;;;26.14;40.04;101459.06;5060320;28;45309;-68
2021/09/25 05:58:43;;;;;;;;;3.75;3.75;;;;;26.12;40.10;101463.75;5062122;27;45378;-68
2021/09/25 06:01:08;;;;;;;;;2.75;2.75;;;;;26.13;40.26;101473.41;5062394;28;46290;-68
2021/09/25 06:03:33;;;;;;;;;5.25;3.25;;;;;26.13;40.21;101463.56;5058945;28;45445;-68
2021/09/25 06:05:59;;;;;;;;;2.50;2.50;;;;;26.15;39.81;101468.72;5061039;28;45398;-68
2021/09/25 06:08:24;;;;;;;;;6.75;4.25;;;;;26.13;40.37;101479.56;5075390;27;45279;-69
2021/09/25 06:10:49;;;;;;;;;6.50;4.25;;;;;26.10;39.98;101465.81;5075207;28;46641;-68
2021/09/25 06:13:15;;;;;;;;;4.00;4.00;;;;;26.13;39.97;101468.88;5061353;28;45486;-68
2021/09/25 06:15:40;;;;;;;;;2.00;2.00;;;;;26.14;40.09;101464.38;5062334;28;45415;-68
2021/09/25 06:18:06;;;;;;;;;3.00;3.00;;;;;26.15;39.90;101466.84;5061363;28;45478;-69
2021/09/25 06:20:32;;;;;;;;;3.00;3.00;;;;;26.13;40.28;101463.56;5058762;28;45538;-68
2021/09/25 06:22:57;;;;;;;;;4.00;4.00;;;;;26.14;39.88;101449.22;5060900;28;45438;-68
2021/09/25 06:25:23;;;;;;;;;3.00;3.00;;;;;26.14;39.94;101443.06;5062295;28;45576;-69
2021/09/25 06:27:49;;;;;;;;;4.00;4.00;;;;;26.13;39.79;101436.06;5058844;28;45450;-69
2021/09/25 06:30:14;;;;;;;;;3.00;2.00;;;;;26.09;39.66;101424.97;5058788;28;45507;-69
2021/09/25 06:32:40;;;;;;;;;5.25;5.00;;;;;26.08;39.61;101433.97;5058552;28;45561;-69
2021/09/25 06:35:10;;;;;;;;;3.00;3.00;;;;;26.14;40.08;101440.38;5056386;28;45364;-69
2021/09/25 06:37:36;;;;;;;;;3.00;3.00;;;;;26.15;39.93;101447.38;5058953;28;45335;-68
2021/09/25 06:40:03;;;;;;;;;2.00;1.00;;;;;26.14;39.93;101456.38;5058346;28;45935;-69
2021/09/25 06:42:28;;;;;;;;;2.75;2.75;;;;;26.13;40.01;101466.22;5058504;28;45476;-69
2021/09/25 06:44:54;;;;;;;;;3.75;3.75;;;;;26.00;39.51;101429.63;5058597;28;45407;-68
2021/09/25 06:47:19;;;;;;;;;2.50;2.50;;;;;26.13;39.76;101447.56;5058462;28;45356;-68
2021/09/25 06:49:44;;;;;;;;;3.25;3.25;;;;;26.13;39.92;101450.22;5057935;28;45953;-68
2021/09/25 06:52:10;;;;;;;;;4.00;4.00;;;;;26.12;39.79;101451.25;5058433;28;45304;-68
2021/09/25 06:54:37;;;;;;;;;3.00;3.00;;;;;26.09;39.72;101448.97;5058575;28;45471;-68
2021/09/25 06:57:04;;;;;;;;;4.00;4.00;;;;;26.09;39.80;101454.31;5061631;28;45544;-68
2021/09/25 06:59:29;;;;;;;;;3.00;3.00;;;;;26.10;39.52;101447.13;5070233;28;46072;-68
2021/09/25 07:01:55;;;;;;;;;3.75;3.75;;;;;26.09;39.59;101458.81;5065461;28;45818;-68
2021/09/25 07:04:20;;;;;;;;;3.00;3.00;;;;;26.07;39.23;101456.34;5073180;27;45505;-68
2021/09/25 07:06:45;;;;;;;;;3.00;3.00;;;;;26.09;39.03;101467.63;5074144;27;45556;-68
2021/09/25 07:09:11;;;;;;;;;4.25;4.25;;;;;26.08;39.32;101471.31;5073241;28;46219;-68
2021/09/25 07:11:36;;;;;;;;;3.75;3.75;;;;;26.08;39.08;101473.97;5071935;28;45566;-68
2021/09/25 07:14:03;;;;;;;;;2.75;2.75;;;;;26.07;39.01;101475.81;5075086;28;45342;-69
2021/09/25 07:16:28;;;;;;;;;3.00;3.00;;;;;26.00;38.91;101461.59;5062727;28;45319;-68
2021/09/25 07:18:54;;;;;;;;;5.00;3.75;;;;;26.01;38.77;101460.59;5061124;28;46186;-68
2021/09/25 07:21:20;;;;;;;;;3.75;3.75;;;;;26.07;38.32;101473.16;5057908;28;45490;-68
2021/09/25 07:23:45;;;;;;;;;4.00;4.00;;;;;26.06;38.68;101463.50;5073413;28;45543;-67
2021/09/25 07:26:10;;;;;;;;;4.00;4.00;;;;;26.06;38.45;101458.19;5073126;28;45235;-69
2021/09/25 07:28:36;;;;;;;;;4.00;4.00;;;;;26.06;38.69;101462.69;5061381;27;45991;-68
2021/09/25 07:31:02;;;;;;;;;4.00;4.00;;;;;26.06;38.15;101465.34;5060664;28;45615;-68
2021/09/25 07:33:28;;;;;;;;;6.00;5.00;;;;;26.06;38.39;101471.50;5061440;28;45334;-69
2021/09/25 07:35:55;;;;;;;;;2.50;2.50;;;;;26.03;38.45;101463.06;5069461;28;45569;-68
2021/09/25 07:38:21;;;;;;;;;4.00;3.00;;;;;26.04;38.64;101462.88;5054968;28;46933;-67
2021/09/25 07:40:46;;;;;;;;;3.25;3.25;;;;;26.06;38.63;101463.50;5070042;28;45466;-66
2021/09/25 07:43:12;;;;;;;;;3.00;3.00;;;;;26.02;38.68;101440.09;5064328;27;45607;-69
2021/09/25 07:45:37;;;;;;;;;4.00;4.00;;;;;26.07;38.89;101464.34;5065323;28;45525;-72
2021/09/25 07:48:03;;;;;;;;;3.00;3.00;;;;;26.08;38.96;101460.66;5057920;28;46101;-71
2021/09/25 07:50:28;;;;;;;;;2.75;2.00;;;;;26.07;39.11;101449.16;5055765;28;45490;-69
2021/09/25 07:52:56;;;;;;;;;3.00;3.00;;;;;26.07;39.13;101451.00;5060705;27;45372;-69
2021/09/25 07:55:23;;;;;;;;;2.50;2.50;;;;;26.07;39.01;101441.16;5060854;28;45527;-69
2021/09/25 07:57:48;;;;;;;;;5.00;4.00;;;;;26.07;39.19;101433.16;5060658;28;46507;-66
2021/09/25 08:00:15;;;;;;;;;2.75;2.75;;;;;26.07;39.11;101437.69;5060118;28;45380;-66
2021/09/25 08:02:41;;;;;;;;;3.25;2.75;;;;;26.07;39.44;101435.81;5056580;28;45521;-65
2021/09/25 08:05:06;;;;;;;;;3.75;3.75;;;;;26.07;39.41;101435.81;5070790;28;45409;-66
2021/09/25 08:07:32;;;;;;;;;5.25;4.00;;;;;26.07;39.48;101438.47;5057495;28;45733;-66
2021/09/25 08:09:57;;;;;;;;;3.00;3.00;;;;;26.01;39.75;101420.59;5057326;28;45414;-66
2021/09/25 08:12:23;;;;;;;;;3.00;2.25;;;;;26.06;39.53;101430.69;5063409;28;45938;-65
2021/09/25 08:14:48;;;;;;;;;6.50;4.75;;;;;26.07;39.48;101422.47;5060435;28;45472;-66
2021/09/25 08:17:13;;;;;;;;;3.00;3.00;;;;;26.10;39.66;101428.47;5062019;28;46279;-66
2021/09/25 08:19:38;;;;;;;;;3.75;3.75;;;;;26.09;39.68;101427.63;5070968;27;45523;-66
2021/09/25 08:22:04;;;;;;;;;3.75;3.25;;;;;26.10;39.57;101437.28;5068048;27;45489;-65
2021/09/25 08:24:30;;;;;;;;;3.75;3.75;;;;;26.11;39.84;101446.09;5060780;28;45324;-66
2021/09/25 08:26:56;;;;;;;;;4.75;3.00;;;;;26.12;39.75;101447.75;5060613;28;45975;-65
2021/09/25 08:29:21;;;;;;;;;4.00;4.00;;;;;26.12;39.83;101453.09;5058194;28;46027;-65
2021/09/25 08:31:47;;;;;;;;;3.50;2.25;;;;;26.13;39.67;101444.88;5060462;28;45382;-65
2021/09/25 08:34:13;;;;;;;;;3.75;3.75;;;;;26.13;40.10;101442.22;5060624;28;45486;-65
2021/09/25 08:36:39;;;;;;;;;3.50;3.50;;;;;26.11;39.46;101433.59;5060398;28;47232;-66
2021/09/25 08:39:04;;;;;;;;;2.75;2.75;;;;;26.10;39.81;101417.81;5060452;28;45397;-66
2021/09/25 08:41:32;;;;;;;;;2.75;2.75;;;;;26.14;39.56;101422.56;5059120;28;45348;-66
2021/09/25 08:43:58;;;;;;;;;2.00;2.00;;;;;26.07;39.85;101409.16;5058896;27;45360;-66
2021/09/25 08:46:24;;;;;;;;;6.00;4.00;;;;;26.07;39.98;101411.03;5060037;28;46103;-66
2021/09/25 08:48:49;;;;;;;;;4.00;4.00;;;;;26.13;39.97;101412.88;5060301;28;45450;-66
2021/09/25 08:51:14;;;;;;;;;4.25;3.00;;;;;26.17;39.67;101424.84;5062202;28;45438;-66
2021/09/25 08:53:40;;;;;;;;;5.00;3.50;;;;;26.18;40.05;101420.31;5059490;28;45323;-66
2021/09/25 08:56:05;;;;;;;;;3.50;3.50;;;;;26.19;39.89;101421.97;5062221;28;47126;-66
2021/09/25 08:58:31;;;;;;;;;2.00;2.00;;;;;26.19;40.25;101421.97;5063021;28;45218;-65
2021/09/25 09:00:56;;;;;;;;;3.75;2.75;;;;;26.18;39.84;101412.31;5063581;28;45411;-65
2021/09/25 09:03:36;;;;;;;;;3.50;3.50;;;;;26.22;39.62;101421.56;5060199;28;45462;-65
2021/09/25 09:06:12;;;;;;;;;3.25;3.25;;;;;26.23;40.52;101411.75;5060128;28;46185;-65
2021/09/25 09:08:39;;;;;;;;;3.00;2.25;;;;;26.24;40.45;101413.38;5059725;28;46378;-65
2021/09/25 09:11:06;;;;;;;;;2.50;2.50;;;;;26.25;40.40;101421.19;5057776;27;45378;-65
2021/09/25 09:13:33;;;;;;;;;4.00;3.00;;;;;26.26;40.46;101414.00;5059129;28;45227;-65
2021/09/25 09:16:03;;;;;;;;;3.67;3.67;;;;;26.24;40.47;101411.53;5059675;28;46974;-65
2021/09/25 09:18:31;;;;;;;;;3.50;3.00;;;;;26.26;40.36;101412.16;5059593;28;45363;-65
2021/09/25 09:21:18;;;;;;;;;3.00;3.00;;;;;26.27;40.42;101416.47;5060037;28;45590;-66
2021/09/25 09:23:55;;;;;;;;;6.00;3.00;;;;;26.28;40.58;101417.31;5056619;28;46463;-65
2021/09/25 09:26:23;;;;;;;;;2.33;2.33;;;;;26.25;40.55;101405.19;5060053;28;46249;-65
2021/09/25 09:28:51;;;;;;;;;4.00;4.00;;;;;26.28;40.63;101396.78;5060896;27;45346;-65
2021/09/25 09:31:18;;;;;;;;;3.75;3.00;;;;;26.29;40.88;101397.59;5062858;28;45434;-65
2021/09/25 09:33:46;;;;;;;;;4.00;3.00;;;;;26.28;40.67;101396.78;5063007;28;45417;-65
2021/09/25 09:36:18;;;;;;;;;4.25;4.00;;;;;26.31;40.77;101397.44;5062739;28;47174;-65
2021/09/25 09:38:54;;;;;;;;;2.00;2.00;;;;;26.31;40.91;101406.22;5059205;28;45191;-65
2021/09/25 09:41:31;;;;;;;;;4.00;3.00;;;;;26.32;40.92;101404.38;5074121;28;45304;-65
2021/09/25 09:44:03;;;;;;;;;4.00;2.50;;;;;26.32;40.88;101415.88;5061283;28;45538;-65
2021/09/25 09:46:32;;;;;;;;;3.00;3.00;;;;;26.32;40.86;101413.22;5062564;28;47205;-65
2021/09/25 09:48:57;;;;;;;;;4.00;4.00;;;;;26.33;40.56;101406.88;5062423;28;45446;-65
2021/09/25 09:51:37;;;;;;;;;2.50;2.50;;;;;26.34;40.56;101402.34;5062671;28;45573;-65
2021/09/25 09:54:08;;;;;;;;;5.00;3.00;;;;;26.32;40.65;101402.56;5061522;28;45268;-65
2021/09/25 09:56:39;;;;;;;;;2.00;2.00;;;;;26.34;40.94;101410.34;5081365;27;47012;-65
2021/09/25 09:59:05;;;;;;;;;2.33;2.33;;;;;26.35;41.03;101410.16;5056548;27;45482;-65
2021/09/25 10:01:31;;;;;;;;;4.00;3.00;;;;;26.32;40.88;101399.06;5059190;28;45585;-65
2021/09/25 10:03:58;;;;;;;;;2.75;2.75;;;;;26.34;40.76;101405.84;5059062;28;45609;-65
2021/09/25 10:06:24;;;;;;;;;4.00;3.00;;;;;26.31;40.59;101406.22;5058852;28;46111;-65
2021/09/25 10:08:49;;;;;;;;;3.00;3.00;;;;;26.35;40.54;101402.16;5059182;28;45399;-65
2021/09/25 10:11:16;;;;;;;;;2.00;2.00;;;;;26.35;41.11;101398.66;5056907;28;45351;-65
2021/09/25 10:13:41;;;;;;;;;4.00;3.00;;;;;26.36;40.78;101395.78;5091083;27;45489;-65
2021/09/25 10:16:08;;;;;;;;;6.00;5.25;;;;;26.37;40.79;101401.97;5062362;27;45287;-65
2021/09/25 10:18:35;;;;;;;;;3.25;3.00;;;;;26.37;40.63;101401.97;5060730;28;45434;-65
2021/09/25 10:21:02;;;;;;;;;3.00;3.00;;;;;26.37;40.88;101405.47;5057743;28;45535;-65
2021/09/25 10:23:30;;;;;;;;;2.00;2.00;;;;;26.35;41.14;101385.34;5059516;28;45735;-65
2021/09/25 10:25:57;;;;;;;;;3.00;3.00;;;;;26.38;41.03;101384.94;5057480;27;46253;-65
2021/09/25 10:28:28;;;;;;;;;3.00;2.75;;;;;26.40;40.67;101388.22;5058615;28;45531;-65
2021/09/25 10:30:54;;;;;;;;;4.50;4.00;;;;;26.40;41.27;101385.56;5058657;28;45386;-65
2021/09/25 10:33:22;;;;;;;;;3.50;3.50;;;;;26.37;40.84;101385.97;5058855;28;45359;-66
2021/09/25 10:35:48;;;;;;;;;3.00;3.00;;;;;26.38;41.04;101391.13;5058595;28;46742;-65
2021/09/25 10:38:29;;;;;;;;;3.00;3.00;;;;;26.41;41.15;101387.22;5056218;28;45281;-65
2021/09/25 10:41:13;;;;;;;;;2.75;2.75;;;;;26.42;41.23;101378.19;5057598;27;45454;-65
2021/09/25 10:43:43;;;;;;;;;3.00;3.00;;;;;26.42;41.04;101378.19;5058947;28;45291;-65
2021/09/25 10:46:11;;;;;;;;;1.75;1.75;;;;;26.41;40.89;101366.69;5058402;28;46090;-65
2021/09/25 10:48:47;;;;;;;;;4.00;3.00;;;;;26.43;41.16;101371.00;5058223;28;45647;-65
2021/09/25 10:51:16;;;;;;;;;3.33;3.33;;;;;26.42;41.06;101364.84;5058634;28;45498;-65
2021/09/25 10:53:45;;;;;;;;;4.00;3.75;;;;;26.42;41.38;101356.84;5057545;28;45631;-65
2021/09/25 10:56:21;;;;;;;;;4.75;3.75;;;;;26.41;41.26;101369.34;5071789;28;45711;-65
2021/09/25 10:59:03;;;;;;;;;3.25;2.75;;;;;26.41;41.10;101361.34;5075166;28;45516;-65
2021/09/25 11:01:36;;;;;;;;;3.50;3.50;;;;;26.43;40.92;101365.66;5072589;27;45347;-65
2021/09/25 11:04:07;;;;;;;;;4.00;4.00;;;;;26.41;40.96;101372.03;5073835;27;45310;-65
2021/09/25 11:06:52;;;;;;;;;4.00;3.75;;;;;26.42;41.11;101364.84;5073931;28;46113;-65
2021/09/25 11:09:39;;;;;;;;;5.50;5.00;;;;;26.38;41.27;101358.28;5073540;27;45440;-65
2021/09/25 11:12:15;;;;;;;;;3.33;2.33;;;;;26.30;41.22;101356.59;5074265;27;45452;-66
2021/09/25 11:14:46;;;;;;;;;3.00;3.00;;;;;26.44;41.25;101362.03;5058049;28;45433;-65
2021/09/25 11:17:17;;;;;;;;;4.75;4.75;;;;;26.43;41.11;101368.34;5071826;28;45404;-65
2021/09/25 11:19:46;;;;;;;;;5.00;3.75;;;;;26.43;41.39;101360.34;5074472;28;45469;-65
2021/09/25 11:22:30;;;;;;;;;4.00;4.00;;;;;26.43;41.13;101360.34;5073497;28;45481;-65